CUZ weather

Alejandro Velasco Astete International Airport
Cusco, Cuzco Region, PerĂº

Public forecast

Using degrees Celsius for public forecast. Weather courtesy of forecast.io.

Current aviation weather report (METAR) for Alejandro Velasco Astete International Airport

Retrieved 2019/11/13 11:30 UTC (0 seconds ago):

SPZO 131130Z VRB01KT 9999 FEW040 08/05 Q1031 NOSIG RMK BIRD HAZARD RWY 28

Aviation forecast (TAF) for Alejandro Velasco Astete International Airport

Retrieved 2019/11/13 06:33 UTC (4 hours ago):

TAF TAF SPZO 130500Z 1306/1406 27005KT 8000 SCT040 BKN080 TX21/1319Z TN09/1311Z TEMPO 1306/1309 RA FEW037 SCT040 BKN100 BECMG 1315/1317 36007KT 9999 SCT040 SCT150 TEMPO 1318/1321 FEW040TCU SCT060 BKN100